createdAt,value
2018-03-27T00:00:53.826Z,66.78
2018-03-27T00:03:23.188Z,66.91
2018-03-27T00:05:55.286Z,67.03
2018-03-27T00:08:23.703Z,66.72
2018-03-27T00:10:54.458Z,66.77
2018-03-27T00:13:23.982Z,66.79
2018-03-27T00:15:53.227Z,66.69
2018-03-27T00:18:21.909Z,66.68
2018-03-27T00:20:52.005Z,66.65
2018-03-27T00:23:20.375Z,66.64
2018-03-27T00:25:49.335Z,66.48
2018-03-27T00:28:29.433Z,66.15
2018-03-27T00:31:11.426Z,65.84
2018-03-27T00:33:51.778Z,65.59
2018-03-27T00:36:33.430Z,65.62
2018-03-27T00:39:14.601Z,65.73
2018-03-27T00:44:55.834Z,65.50
2018-03-27T00:47:24.423Z,65.67
2018-03-27T00:49:54.551Z,65.57
2018-03-27T00:52:23.267Z,65.56
2018-03-27T00:54:51.888Z,65.58
2018-03-27T00:57:21.633Z,65.59
2018-03-27T00:59:51.226Z,65.61
2018-03-27T01:02:21.049Z,65.34
2018-03-27T01:04:50.435Z,65.30
2018-03-27T01:07:19.632Z,65.33
2018-03-27T01:09:49.666Z,65.33
2018-03-27T01:12:18.009Z,65.21
2018-03-27T01:14:47.449Z,65.23
2018-03-27T01:17:16.490Z,65.32
2018-03-27T01:19:45.427Z,65.38
2018-03-27T01:22:13.769Z,65.37
2018-03-27T01:24:42.553Z,65.05
2018-03-27T01:27:12.297Z,64.95
2018-03-27T01:29:41.072Z,65.01
2018-03-27T01:32:09.661Z,64.79
2018-03-27T01:34:40.553Z,64.52
2018-03-27T01:37:09.187Z,64.67
2018-03-27T01:39:38.659Z,64.82
2018-03-27T01:42:07.501Z,64.88
2018-03-27T01:44:36.577Z,64.79
2018-03-27T01:47:05.746Z,64.60
2018-03-27T01:49:34.514Z,64.45
2018-03-27T01:52:04.009Z,64.50
2018-03-27T01:54:32.753Z,64.48
2018-03-27T01:57:01.092Z,64.50
2018-03-27T01:59:29.686Z,64.54
2018-03-27T02:01:59.209Z,64.39
2018-03-27T02:04:27.550Z,64.14
2018-03-27T02:06:56.924Z,63.93
2018-03-27T02:09:25.312Z,63.70
2018-03-27T02:11:59.240Z,63.75
2018-03-27T02:14:33.173Z,63.41
2018-03-27T02:17:07.489Z,63.52
2018-03-27T02:19:41.715Z,63.65
2018-03-27T02:22:11.342Z,63.69
2018-03-27T02:24:42.147Z,63.68
2018-03-27T02:27:11.513Z,63.64
2018-03-27T02:29:40.156Z,63.65
2018-03-27T02:32:09.851Z,63.73
2018-03-27T02:34:40.022Z,63.88
2018-03-27T02:37:08.415Z,63.95
2018-03-27T02:39:37.479Z,63.52
2018-03-27T02:42:06.271Z,63.57
2018-03-27T02:44:34.765Z,63.58
2018-03-27T02:47:04.328Z,63.65
2018-03-27T02:49:32.724Z,63.45
2018-03-27T02:52:01.366Z,63.31
2018-03-27T02:54:29.760Z,63.54
2018-03-27T02:56:58.467Z,63.69
2018-03-27T02:59:27.491Z,63.51
2018-03-27T03:01:56.874Z,63.50
2018-03-27T03:04:27.435Z,63.47
2018-03-27T03:06:56.184Z,63.45
2018-03-27T03:09:25.548Z,63.38
2018-03-27T03:11:54.880Z,63.32
2018-03-27T03:14:24.406Z,63.30
2018-03-27T03:16:53.353Z,63.11
2018-03-27T03:19:21.978Z,63.21
2018-03-27T03:21:50.321Z,63.16
2018-03-27T03:24:18.684Z,63.13
2018-03-27T03:26:47.453Z,63.16
2018-03-27T03:29:16.929Z,63.23
2018-03-27T03:31:45.345Z,63.08
2018-03-27T03:34:14.976Z,63.20
2018-03-27T03:36:44.410Z,62.97
2018-03-27T03:39:13.180Z,63.03
2018-03-27T03:41:41.558Z,63.01
2018-03-27T03:44:09.896Z,62.99
2018-03-27T03:46:40.024Z,62.99
2018-03-27T03:49:09.231Z,63.13
2018-03-27T03:51:39.756Z,63.03
2018-03-27T03:54:09.534Z,62.96
2018-03-27T03:56:38.050Z,63.03
2018-03-27T03:59:08.361Z,63.07
2018-03-27T04:01:36.753Z,63.08
2018-03-27T04:04:06.095Z,63.01
2018-03-27T04:06:35.557Z,62.97
2018-03-27T04:09:04.298Z,63.04
2018-03-27T04:11:33.896Z,63.19
2018-03-27T04:14:02.572Z,63.30
2018-03-27T04:16:32.224Z,63.16
2018-03-27T04:19:00.829Z,63.25
2018-03-27T04:21:30.235Z,63.29
2018-03-27T04:23:58.741Z,63.33
2018-03-27T04:26:27.467Z,63.22
2018-03-27T04:28:56.571Z,62.91
2018-03-27T04:31:25.659Z,62.84
2018-03-27T04:33:53.997Z,62.84
2018-03-27T04:36:22.336Z,62.75
2018-03-27T04:38:51.924Z,62.73
2018-03-27T04:41:20.901Z,62.32
2018-03-27T04:43:50.452Z,62.27
2018-03-27T04:46:20.417Z,62.16
2018-03-27T04:48:48.770Z,62.15
2018-03-27T04:51:17.622Z,62.13
2018-03-27T04:53:47.441Z,61.96
2018-03-27T04:56:16.632Z,61.85
2018-03-27T04:58:45.384Z,61.91
2018-03-27T05:01:14.035Z,62.04
2018-03-27T05:03:43.014Z,61.88
2018-03-27T05:06:12.222Z,61.92
2018-03-27T05:08:41.772Z,62.12
2018-03-27T05:11:10.511Z,62.15
2018-03-27T05:13:40.371Z,62.16
2018-03-27T05:16:10.390Z,62.11
2018-03-27T05:18:39.945Z,62.08
2018-03-27T05:21:08.361Z,62.20
2018-03-27T05:23:37.845Z,62.21
2018-03-27T05:26:06.416Z,62.23
2018-03-27T05:28:35.204Z,62.23
2018-03-27T05:31:04.082Z,62.29
2018-03-27T05:33:33.205Z,62.31
2018-03-27T05:36:01.838Z,62.33
2018-03-27T05:38:31.002Z,62.37
2018-03-27T05:41:00.126Z,62.29
2018-03-27T05:43:28.910Z,62.17
2018-03-27T05:45:57.261Z,62.26
2018-03-27T05:48:32.789Z,62.27
2018-03-27T05:51:01.389Z,62.31
2018-03-27T05:53:29.736Z,62.28
2018-03-27T05:55:58.927Z,62.12
2018-03-27T05:58:28.404Z,62.24
2018-03-27T06:00:56.745Z,62.13
2018-03-27T06:03:25.094Z,61.88
2018-03-27T06:05:54.050Z,61.71
2018-03-27T06:08:22.928Z,61.10
2018-03-27T06:10:51.416Z,60.72
2018-03-27T06:13:19.777Z,60.73
2018-03-27T06:15:48.114Z,60.91
2018-03-27T06:18:17.112Z,60.84
2018-03-27T06:20:45.844Z,60.92
2018-03-27T06:23:15.402Z,60.67
2018-03-27T06:25:44.311Z,60.39
2018-03-27T06:28:12.719Z,60.46
2018-03-27T06:30:41.308Z,59.86
2018-03-27T06:33:09.800Z,59.83
2018-03-27T06:35:38.602Z,59.55
2018-03-27T06:38:07.158Z,59.04
2018-03-27T06:40:35.654Z,59.24
2018-03-27T06:43:04.432Z,59.24
2018-03-27T06:45:34.044Z,59.09
2018-03-27T06:48:02.400Z,59.09
2018-03-27T06:50:31.071Z,59.20
2018-03-27T06:52:59.429Z,59.27
2018-03-27T06:55:28.077Z,59.02
2018-03-27T06:57:56.422Z,59.29
2018-03-27T07:00:25.693Z,59.44
2018-03-27T07:02:54.059Z,59.49
2018-03-27T07:05:22.694Z,59.12
2018-03-27T07:07:51.472Z,58.98
2018-03-27T07:10:20.237Z,58.68
2018-03-27T07:12:49.059Z,58.53
2018-03-27T07:15:18.382Z,58.61
2018-03-27T07:17:47.612Z,58.91
2018-03-27T07:20:16.850Z,58.60
2018-03-27T07:22:45.371Z,58.48
2018-03-27T07:25:13.724Z,58.26
2018-03-27T07:27:42.355Z,58.19
2018-03-27T07:30:11.294Z,58.03
2018-03-27T07:32:41.245Z,58.04
2018-03-27T07:35:10.382Z,57.25
2018-03-27T07:37:39.855Z,57.08
2018-03-27T07:40:08.937Z,57.34
2018-03-27T07:42:37.522Z,57.66
2018-03-27T07:45:07.064Z,58.13
2018-03-27T07:47:35.743Z,57.82
2018-03-27T07:50:04.495Z,57.65
2018-03-27T07:52:33.031Z,56.83
2018-03-27T07:55:01.515Z,56.84
2018-03-27T07:57:30.030Z,56.80
2018-03-27T07:59:58.951Z,56.82
2018-03-27T08:02:28.256Z,55.96
2018-03-27T08:04:56.605Z,56.54
2018-03-27T08:07:25.472Z,56.82
2018-03-27T08:09:54.717Z,56.39
2018-03-27T08:12:23.779Z,56.66
2018-03-27T08:14:52.841Z,56.08
2018-03-27T08:17:22.088Z,56.07
2018-03-27T08:19:51.264Z,56.46
2018-03-27T08:22:20.152Z,56.67
2018-03-27T08:24:49.111Z,56.44
2018-03-27T08:27:18.242Z,56.40
2018-03-27T08:29:46.618Z,56.64
2018-03-27T08:32:15.810Z,56.56
2018-03-27T08:34:44.917Z,56.40
2018-03-27T08:37:13.781Z,56.09
2018-03-27T08:39:42.353Z,56.40
2018-03-27T08:42:11.499Z,56.16
2018-03-27T08:44:40.564Z,55.84
2018-03-27T08:47:09.724Z,55.84
2018-03-27T08:49:38.473Z,55.86
2018-03-27T08:52:06.808Z,55.94
2018-03-27T08:54:35.314Z,56.04
2018-03-27T08:57:04.143Z,55.89
2018-03-27T08:59:32.896Z,55.91
2018-03-27T09:02:01.984Z,56.13
2018-03-27T09:04:30.525Z,56.32
2018-03-27T09:06:58.889Z,56.07
2018-03-27T09:09:28.182Z,55.62
2018-03-27T09:11:57.553Z,55.59
2018-03-27T09:14:26.774Z,55.52
2018-03-27T09:16:55.334Z,55.31
2018-03-27T09:19:23.781Z,55.02
2018-03-27T09:21:52.297Z,54.62
2018-03-27T09:24:21.044Z,54.59
2018-03-27T09:26:49.408Z,54.31
2018-03-27T09:29:17.961Z,54.83
2018-03-27T09:31:46.681Z,54.40
2018-03-27T09:34:15.030Z,54.54
2018-03-27T09:36:44.045Z,54.19
2018-03-27T09:39:13.459Z,53.61
2018-03-27T09:41:43.485Z,53.76
2018-03-27T09:44:12.010Z,53.34
2018-03-27T09:46:40.562Z,53.25
2018-03-27T09:49:09.938Z,53.07
2018-03-27T09:51:38.362Z,53.24
2018-03-27T09:54:06.791Z,52.76
2018-03-27T09:56:35.137Z,52.77
2018-03-27T09:59:03.477Z,52.92
2018-03-27T10:01:32.907Z,52.61
2018-03-27T10:04:01.310Z,52.69
2018-03-27T10:06:29.810Z,52.57
2018-03-27T10:08:58.429Z,52.78
2018-03-27T10:11:27.282Z,52.78
2018-03-27T10:13:56.014Z,52.84
2018-03-27T10:16:24.357Z,52.39
2018-03-27T10:18:53.121Z,52.71
2018-03-27T10:21:21.467Z,52.67
2018-03-27T10:23:50.143Z,52.85
2018-03-27T10:26:18.665Z,52.87
2018-03-27T10:28:47.015Z,52.87
2018-03-27T10:31:15.370Z,53.27
2018-03-27T10:33:43.718Z,52.95
2018-03-27T10:36:12.061Z,52.76
2018-03-27T10:38:40.417Z,52.89
2018-03-27T10:41:09.386Z,53.21
2018-03-27T10:43:37.904Z,53.27
2018-03-27T10:46:06.313Z,53.40
2018-03-27T10:48:35.001Z,52.89
2018-03-27T10:51:03.650Z,53.06
2018-03-27T10:53:32.337Z,53.32
2018-03-27T10:56:01.757Z,53.15
2018-03-27T10:58:30.146Z,53.15
2018-03-27T11:00:59.919Z,53.17
2018-03-27T11:03:28.578Z,53.07
2018-03-27T11:05:57.414Z,52.87
2018-03-27T11:08:25.821Z,53.08
2018-03-27T11:10:54.170Z,53.36
2018-03-27T11:13:23.190Z,53.14
2018-03-27T11:15:51.667Z,52.34
2018-03-27T11:18:20.126Z,52.41
2018-03-27T11:20:49.161Z,52.34
2018-03-27T11:23:17.887Z,52.57
2018-03-27T11:25:46.671Z,52.71
2018-03-27T11:28:15.968Z,51.93
2018-03-27T11:30:44.580Z,51.58
2018-03-27T11:33:13.037Z,51.51
2018-03-27T11:35:41.662Z,51.52
2018-03-27T11:38:10.055Z,51.50
2018-03-27T11:40:38.852Z,51.41
2018-03-27T11:43:07.395Z,51.52
2018-03-27T11:45:36.620Z,51.38
2018-03-27T11:48:04.969Z,51.22
2018-03-27T11:50:33.587Z,51.13
2018-03-27T11:53:02.179Z,51.41
2018-03-27T11:55:30.958Z,51.20
2018-03-27T11:57:59.425Z,51.28
2018-03-27T12:00:27.905Z,51.62
2018-03-27T12:02:56.253Z,51.65
2018-03-27T12:05:24.911Z,51.20
2018-03-27T12:07:53.429Z,51.49
2018-03-27T12:10:23.127Z,51.54
2018-03-27T12:12:51.493Z,51.20
2018-03-27T12:15:19.830Z,50.39
2018-03-27T12:17:48.215Z,50.53
2018-03-27T12:20:16.552Z,50.60
2018-03-27T12:22:45.426Z,50.67
2018-03-27T12:25:13.826Z,50.48
2018-03-27T12:27:42.553Z,50.49
2018-03-27T12:30:11.310Z,49.97
2018-03-27T12:32:40.323Z,49.95
2018-03-27T12:35:08.677Z,49.59
2018-03-27T12:37:37.369Z,49.57
2018-03-27T12:40:05.781Z,49.62
2018-03-27T12:42:34.603Z,49.54
2018-03-27T12:45:03.680Z,49.70
2018-03-27T12:47:32.176Z,50.13
2018-03-27T12:50:00.657Z,49.57
2018-03-27T12:52:29.489Z,49.49
2018-03-27T12:54:58.140Z,48.86
2018-03-27T12:57:26.881Z,49.35
2018-03-27T12:59:55.471Z,49.33
2018-03-27T13:02:23.817Z,49.58
2018-03-27T13:04:52.256Z,49.57
2018-03-27T13:07:21.106Z,49.23
2018-03-27T13:09:49.792Z,48.98
2018-03-27T13:12:18.241Z,49.15
2018-03-27T13:14:46.591Z,48.84
2018-03-27T13:17:15.585Z,48.96
2018-03-27T13:19:44.270Z,48.66
2018-03-27T13:22:12.952Z,48.82
2018-03-27T13:24:41.298Z,48.80
2018-03-27T13:27:09.637Z,48.86
2018-03-27T13:29:37.999Z,47.85
2018-03-27T13:32:06.749Z,46.77
2018-03-27T13:34:35.110Z,46.26
2018-03-27T13:37:04.487Z,46.42
2018-03-27T13:39:36.554Z,46.13
2018-03-27T13:42:04.918Z,45.67
2018-03-27T13:44:33.442Z,46.01
2018-03-27T13:47:01.885Z,45.66
2018-03-27T13:49:30.250Z,45.35
2018-03-27T13:51:58.597Z,45.72
2018-03-27T13:54:26.953Z,45.70
2018-03-27T13:56:55.608Z,44.88
2018-03-27T13:59:24.265Z,45.30
2018-03-27T14:01:52.616Z,45.14
2018-03-27T14:04:21.332Z,44.86
2018-03-27T14:06:49.737Z,44.67
2018-03-27T14:09:18.110Z,43.93
2018-03-27T14:11:46.525Z,44.23
2018-03-27T14:14:14.930Z,44.04
2018-03-27T14:16:43.291Z,43.82
2018-03-27T14:19:11.656Z,43.86
2018-03-27T14:21:40.323Z,43.93
2018-03-27T14:24:09.017Z,43.78
2018-03-27T14:26:37.845Z,43.92
2018-03-27T14:29:06.929Z,44.01
2018-03-27T14:31:35.768Z,43.62
2018-03-27T14:34:04.997Z,43.37
2018-03-27T14:36:33.810Z,42.26
2018-03-27T14:39:02.184Z,42.03
2018-03-27T14:41:30.621Z,41.75
2018-03-27T14:43:59.646Z,40.95
2018-03-27T14:46:28.230Z,40.72
2018-03-27T14:48:56.616Z,39.66
2018-03-27T14:51:25.248Z,40.06
2018-03-27T14:53:53.763Z,39.56
2018-03-27T14:56:22.208Z,39.16
2018-03-27T14:58:50.924Z,38.90
2018-03-27T15:01:19.565Z,38.94
2018-03-27T15:03:47.927Z,38.84
2018-03-27T15:06:45.830Z,39.07
2018-03-27T15:09:14.640Z,38.47
2018-03-27T15:11:44.964Z,38.66
2018-03-27T15:14:13.354Z,38.56
2018-03-27T15:16:42.203Z,38.48
2018-03-27T15:19:10.689Z,38.43
2018-03-27T15:21:39.081Z,38.37
2018-03-27T15:24:07.740Z,38.83
2018-03-27T15:26:36.140Z,39.96
2018-03-27T15:29:04.772Z,40.39
2018-03-27T15:31:33.108Z,40.29
2018-03-27T15:34:01.838Z,40.31
2018-03-27T15:36:30.188Z,40.38
2018-03-27T15:38:58.604Z,40.36
2018-03-27T15:41:26.945Z,40.79
2018-03-27T15:43:55.415Z,41.24
2018-03-27T15:46:23.900Z,41.37
2018-03-27T15:48:52.541Z,41.37
2018-03-27T15:51:20.893Z,41.52
2018-03-27T15:53:49.250Z,41.37
2018-03-27T15:56:17.634Z,40.98
2018-03-27T15:58:47.390Z,41.21
2018-03-27T16:01:16.140Z,41.49
2018-03-27T16:03:44.486Z,41.89
2018-03-27T16:06:12.853Z,42.33
2018-03-27T16:08:41.624Z,42.57
2018-03-27T16:11:10.003Z,42.96
2018-03-27T16:13:38.353Z,43.02
2018-03-27T16:16:07.597Z,43.27
2018-03-27T16:18:35.981Z,43.34
2018-03-27T16:21:04.334Z,43.49
2018-03-27T16:23:32.695Z,43.72
2018-03-27T16:26:01.044Z,44.05
2018-03-27T16:28:29.416Z,44.24
2018-03-27T16:30:57.785Z,44.30
2018-03-27T16:33:26.133Z,44.44
2018-03-27T16:35:54.937Z,44.65
2018-03-27T16:38:23.324Z,44.72
2018-03-27T16:40:51.677Z,44.67
2018-03-27T16:43:20.034Z,44.79
2018-03-27T16:45:48.378Z,44.93
2018-03-27T16:48:16.744Z,45.10
2018-03-27T16:50:45.100Z,45.43
2018-03-27T16:53:15.267Z,45.48
2018-03-27T16:55:43.622Z,45.73
2018-03-27T16:58:11.974Z,45.68
2018-03-27T17:00:40.353Z,45.55
2018-03-27T17:03:08.930Z,45.39
2018-03-27T17:05:37.284Z,45.33
2018-03-27T17:08:07.369Z,45.43
2018-03-27T17:10:35.715Z,45.52
2018-03-27T17:13:04.433Z,45.78
2018-03-27T17:15:33.227Z,45.82
2018-03-27T17:18:02.037Z,46.04
2018-03-27T17:20:30.388Z,46.34
2018-03-27T17:22:59.444Z,46.54
2018-03-27T17:25:27.802Z,46.72
2018-03-27T17:27:56.287Z,46.81
2018-03-27T17:30:24.780Z,46.92
2018-03-27T17:32:53.142Z,46.87
2018-03-27T17:35:23.326Z,46.92
2018-03-27T17:37:51.970Z,46.95
2018-03-27T17:40:20.613Z,47.07
2018-03-27T17:42:49.439Z,47.08
2018-03-27T17:45:18.097Z,47.13
2018-03-27T17:47:46.441Z,47.11
2018-03-27T17:50:15.169Z,47.04
2018-03-27T17:52:43.578Z,47.06
2018-03-27T17:55:11.938Z,47.06
2018-03-27T17:57:40.642Z,47.13
2018-03-27T18:00:08.999Z,47.20
2018-03-27T18:02:37.346Z,47.20
2018-03-27T18:05:06.055Z,47.02
2018-03-27T18:07:34.411Z,46.94
2018-03-27T18:10:03.448Z,46.86
2018-03-27T18:12:31.977Z,46.86
2018-03-27T18:15:00.500Z,46.92
2018-03-27T18:17:29.186Z,47.03
2018-03-27T18:19:59.256Z,46.85
2018-03-27T18:22:27.798Z,46.98
2018-03-27T18:24:56.522Z,47.37
2018-03-27T18:27:25.781Z,47.34
2018-03-27T18:29:54.611Z,47.40
2018-03-27T18:32:23.000Z,47.42
2018-03-27T18:34:51.946Z,47.47
2018-03-27T18:37:20.610Z,47.51
2018-03-27T18:39:49.029Z,47.68
2018-03-27T18:42:17.618Z,47.78
2018-03-27T18:44:47.362Z,47.94
2018-03-27T18:47:16.515Z,48.00
2018-03-27T18:49:44.893Z,47.97
2018-03-27T18:52:13.549Z,48.03
2018-03-27T18:54:42.912Z,48.23
2018-03-27T18:57:11.675Z,48.21
2018-03-27T18:59:40.355Z,48.34
2018-03-27T19:02:08.719Z,48.40
2018-03-27T19:04:37.150Z,48.34
2018-03-27T19:07:05.869Z,48.28
2018-03-27T19:09:34.750Z,48.34
2018-03-27T19:12:03.432Z,48.47
2018-03-27T19:14:32.187Z,48.57
2018-03-27T19:17:00.562Z,48.57
2018-03-27T19:19:29.414Z,48.70
2018-03-27T19:21:58.896Z,48.64
2018-03-27T19:24:27.792Z,48.61
2018-03-27T19:26:56.798Z,48.65
2018-03-27T19:29:25.177Z,48.85
2018-03-27T19:31:54.070Z,48.91
2018-03-27T19:34:22.632Z,49.04
2018-03-27T19:36:51.496Z,49.10
2018-03-27T19:39:20.760Z,49.26
2018-03-27T19:41:50.422Z,49.24
2018-03-27T19:44:19.208Z,49.35
2018-03-27T19:46:47.662Z,49.33
2018-03-27T19:49:16.990Z,49.44
2018-03-27T19:51:45.368Z,49.47
2018-03-27T19:54:15.288Z,49.46
2018-03-27T19:56:44.048Z,49.40
2018-03-27T19:59:12.489Z,49.46
2018-03-27T20:01:41.224Z,49.49
2018-03-27T20:04:10.008Z,49.64
2018-03-27T20:06:38.396Z,49.63
2018-03-27T20:09:07.133Z,49.82
2018-03-27T20:11:35.533Z,49.97
2018-03-27T20:14:04.189Z,50.12
2018-03-27T20:16:32.604Z,50.36
2018-03-27T20:19:01.222Z,50.49
2018-03-27T20:21:29.568Z,50.57
2018-03-27T20:23:58.655Z,50.68
2018-03-27T20:26:27.005Z,50.77
2018-03-27T20:28:56.002Z,50.59
2018-03-27T20:31:24.997Z,50.66
2018-03-27T20:33:53.831Z,50.65
2018-03-27T20:36:23.674Z,50.79
2018-03-27T20:38:52.403Z,50.74
2018-03-27T20:41:21.506Z,50.79
2018-03-27T20:43:49.891Z,50.87
2018-03-27T20:46:18.824Z,50.91
2018-03-27T20:48:47.480Z,50.82
2018-03-27T20:51:15.820Z,50.75
2018-03-27T20:53:44.431Z,50.61
2018-03-27T20:56:13.198Z,50.66
2018-03-27T20:58:41.800Z,50.52
2018-03-27T21:01:10.179Z,50.64
2018-03-27T21:03:38.899Z,50.71
2018-03-27T21:06:08.176Z,50.84
2018-03-27T21:08:37.128Z,50.98
2018-03-27T21:11:05.548Z,51.17
2018-03-27T21:13:33.954Z,51.04
2018-03-27T21:16:02.911Z,50.97
2018-03-27T21:18:31.346Z,51.22
2018-03-27T21:21:01.197Z,51.10
2018-03-27T21:23:31.223Z,51.13
2018-03-27T21:26:00.269Z,51.23
2018-03-27T21:28:29.070Z,51.42
2018-03-27T21:30:59.360Z,51.64
2018-03-27T21:33:28.154Z,51.62
2018-03-27T21:35:58.241Z,51.46
2018-03-27T21:38:34.649Z,51.35
2018-03-27T21:41:04.587Z,51.17
2018-03-27T21:43:34.260Z,51.34
2018-03-27T21:46:02.647Z,51.14
2018-03-27T21:48:32.285Z,51.30
2018-03-27T21:51:02.689Z,51.23
2018-03-27T21:53:32.207Z,51.17
2018-03-27T21:56:00.991Z,51.06
2018-03-27T21:58:30.349Z,51.06
2018-03-27T22:00:59.999Z,51.16
2018-03-27T22:03:40.333Z,51.35
2018-03-27T22:06:08.709Z,51.49
2018-03-27T22:08:38.504Z,51.90
2018-03-27T22:11:07.269Z,51.88
2018-03-27T22:13:35.765Z,51.79
2018-03-27T22:16:04.274Z,51.92
2018-03-27T22:18:33.661Z,51.84
2018-03-27T22:21:02.630Z,52.12
2018-03-27T22:23:31.314Z,51.93
2018-03-27T22:26:00.969Z,51.89
2018-03-27T22:28:29.457Z,51.83
2018-03-27T22:30:58.953Z,51.77
2018-03-27T22:33:27.362Z,51.84
2018-03-27T22:35:56.054Z,51.85
2018-03-27T22:38:25.350Z,51.92
2018-03-27T22:40:54.078Z,51.97
2018-03-27T22:43:23.276Z,52.14
2018-03-27T22:45:51.622Z,52.13
2018-03-27T22:48:20.434Z,52.21
2018-03-27T22:50:50.220Z,52.27
2018-03-27T22:53:18.991Z,52.29
2018-03-27T22:55:47.888Z,52.15
2018-03-27T22:58:16.879Z,52.00
2018-03-27T23:00:45.589Z,51.73
2018-03-27T23:03:14.079Z,51.77
2018-03-27T23:05:42.982Z,51.70
2018-03-27T23:08:11.936Z,51.72
2018-03-27T23:10:40.281Z,51.84
2018-03-27T23:13:09.151Z,52.02
2018-03-27T23:15:38.101Z,52.17
2018-03-27T23:18:07.596Z,52.37
2018-03-27T23:20:37.026Z,52.40
2018-03-27T23:23:06.662Z,52.59
2018-03-27T23:25:35.346Z,52.74
2018-03-27T23:28:04.010Z,52.91
2018-03-27T23:30:32.824Z,53.06
2018-03-27T23:33:01.611Z,53.20
2018-03-27T23:35:30.371Z,53.42
2018-03-27T23:37:59.094Z,53.44
2018-03-27T23:40:29.180Z,53.19
2018-03-27T23:42:58.544Z,53.00
2018-03-27T23:45:26.960Z,52.64
2018-03-27T23:47:56.274Z,52.16
2018-03-27T23:50:24.620Z,52.63
2018-03-27T23:52:53.542Z,52.97
2018-03-27T23:55:22.936Z,52.67
2018-03-27T23:57:51.664Z,52.63
